createdAt,value
2019-04-26T00:00:46.520Z,9.5
2019-04-26T00:01:46.567Z,9.3
2019-04-26T00:02:46.577Z,9.3
2019-04-26T00:03:48.843Z,9.3
2019-04-26T00:04:47.797Z,9.1
2019-04-26T00:05:46.682Z,9.3
2019-04-26T00:06:46.716Z,9.4
2019-04-26T00:07:46.764Z,9.3
2019-04-26T00:08:46.947Z,9.3
2019-04-26T00:09:46.864Z,9.3
2019-04-26T00:10:46.855Z,9.2
2019-04-26T00:11:46.968Z,9.3
2019-04-26T00:12:46.878Z,9.3
2019-04-26T00:13:46.888Z,9.4
2019-04-26T00:14:46.946Z,9.4
2019-04-26T00:15:46.930Z,9.4
2019-04-26T00:16:46.963Z,9.5
2019-04-26T00:17:47.001Z,9.5
2019-04-26T00:18:47.171Z,9.5
2019-04-26T00:19:47.063Z,9.5
2019-04-26T00:20:47.065Z,9.5
2019-04-26T00:21:49.701Z,9.5
2019-04-26T00:22:47.135Z,9.5
2019-04-26T00:23:47.191Z,9.5
2019-04-26T00:24:47.192Z,9.5
2019-04-26T00:25:47.196Z,9.3
2019-04-26T00:26:47.261Z,9.4
2019-04-26T00:27:47.269Z,9.3
2019-04-26T00:28:47.274Z,9.4
2019-04-26T00:29:47.367Z,9.4
2019-04-26T00:30:47.299Z,9.5
2019-04-26T00:31:47.322Z,9.5
2019-04-26T00:32:47.394Z,9.4
2019-04-26T00:33:47.346Z,9.5
2019-04-26T00:34:47.384Z,9.6
2019-04-26T00:35:48.183Z,9.7
2019-04-26T00:36:47.389Z,9.6
2019-04-26T00:37:47.390Z,9.6
2019-04-26T00:38:47.474Z,9.5
2019-04-26T00:39:47.441Z,9.7
2019-04-26T00:40:47.456Z,9.8
2019-04-26T00:41:47.490Z,9.7
2019-04-26T00:42:47.457Z,9.7
2019-04-26T00:43:47.461Z,9.8
2019-04-26T00:44:50.694Z,9.8
2019-04-26T00:45:47.494Z,9.6
2019-04-26T00:46:47.650Z,9.7
2019-04-26T00:47:47.508Z,9.8
2019-04-26T00:48:47.490Z,9.8
2019-04-26T00:49:47.487Z,9.8
2019-04-26T00:50:47.481Z,9.8
2019-04-26T00:51:47.536Z,9.6
2019-04-26T00:52:47.699Z,9.6
2019-04-26T00:53:47.673Z,9.6
2019-04-26T00:54:47.719Z,9.6
2019-04-26T00:55:47.865Z,9.5
2019-04-26T00:56:47.871Z,9.6
2019-04-26T00:57:47.901Z,9.7
2019-04-26T00:58:47.936Z,9.6
2019-04-26T00:59:48.155Z,9.5
2019-04-26T01:00:48.050Z,9.4
2019-04-26T01:01:48.163Z,9.5
2019-04-26T01:02:48.202Z,9.8
2019-04-26T01:03:48.260Z,9.7
2019-04-26T01:04:48.332Z,10
2019-04-26T01:05:59.489Z,10
2019-04-26T01:06:48.451Z,10.1
2019-04-26T01:07:48.356Z,10.1
2019-04-26T01:08:51.027Z,10.1
2019-04-26T01:09:48.449Z,10.1
2019-04-26T01:10:48.541Z,10.1
2019-04-26T01:11:48.556Z,10.1
2019-04-26T01:12:48.641Z,10.1
2019-04-26T01:13:48.648Z,10.1
2019-04-26T01:14:48.719Z,10.2
2019-04-26T01:15:48.751Z,10.2
2019-04-26T01:16:48.783Z,10.2
2019-04-26T01:17:48.826Z,10
2019-04-26T01:18:48.826Z,10
2019-04-26T01:19:48.844Z,10
2019-04-26T01:20:48.900Z,10
2019-04-26T01:21:49.001Z,10
2019-04-26T01:22:48.983Z,10
2019-04-26T01:23:49.110Z,10
2019-04-26T01:24:49.185Z,10
2019-04-26T01:25:49.189Z,10
2019-04-26T01:26:49.167Z,9.7
2019-04-26T01:27:49.222Z,9.7
2019-04-26T01:28:49.261Z,9.9
2019-04-26T01:29:49.355Z,9.7
2019-04-26T01:30:49.518Z,9.9
2019-04-26T01:31:49.382Z,10
2019-04-26T01:32:49.357Z,9.9
2019-04-26T01:33:49.407Z,10.1
2019-04-26T01:34:49.539Z,9.7
2019-04-26T01:35:49.515Z,9.9
2019-04-26T01:36:49.541Z,10
2019-04-26T01:37:49.589Z,9.8
2019-04-26T01:38:49.664Z,9.7
2019-04-26T01:39:49.691Z,9.6
2019-04-26T01:40:49.789Z,9.7
2019-04-26T01:41:49.733Z,9.8
2019-04-26T01:42:49.783Z,9.6
2019-04-26T01:43:49.838Z,9.6
2019-04-26T01:44:49.887Z,9.7
2019-04-26T01:45:49.884Z,9.8
2019-04-26T01:46:49.925Z,9.8
2019-04-26T01:47:50.009Z,9.5
2019-04-26T01:48:49.996Z,9.7
2019-04-26T01:49:50.046Z,9.8
2019-04-26T01:50:50.129Z,9.8
2019-04-26T01:51:50.332Z,9.8
2019-04-26T01:52:50.171Z,9.8
2019-04-26T01:53:50.290Z,9.7
2019-04-26T01:54:50.274Z,9.7
2019-04-26T01:55:50.266Z,9.7
2019-04-26T01:56:50.301Z,9.7
2019-04-26T01:57:50.352Z,9.6
2019-04-26T01:58:50.422Z,9.6
2019-04-26T01:59:50.439Z,9.5
2019-04-26T02:00:50.426Z,9.5
2019-04-26T02:01:50.425Z,9.5
2019-04-26T02:02:50.452Z,9.5
2019-04-26T02:03:50.474Z,9.5
2019-04-26T02:04:50.525Z,9.5
2019-04-26T02:05:50.564Z,9.6
2019-04-26T02:06:50.568Z,9.6
2019-04-26T02:07:50.652Z,9.5
2019-04-26T02:08:50.616Z,9.5
2019-04-26T02:09:50.718Z,9.5
2019-04-26T02:10:50.640Z,9.4
2019-04-26T02:11:50.660Z,9.4
2019-04-26T02:12:50.702Z,9.3
2019-04-26T02:13:50.684Z,9.3
2019-04-26T02:14:50.768Z,9.3
2019-04-26T02:15:50.728Z,9.3
2019-04-26T02:16:50.728Z,9.2
2019-04-26T02:17:50.801Z,9.3
2019-04-26T02:18:50.803Z,9.4
2019-04-26T02:19:50.794Z,9.4
2019-04-26T02:20:50.923Z,9.3
2019-04-26T02:21:50.783Z,9.4
2019-04-26T02:22:50.804Z,9.5
2019-04-26T02:23:50.820Z,9.6
2019-04-26T02:24:50.830Z,9.5
2019-04-26T02:25:50.823Z,9.4
2019-04-26T02:26:50.841Z,9.3
2019-04-26T02:27:50.865Z,9.3
2019-04-26T02:28:50.869Z,9.4
2019-04-26T02:29:50.873Z,9.3
2019-04-26T02:30:50.894Z,9.3
2019-04-26T02:31:53.203Z,9.2
2019-04-26T02:32:50.994Z,9.2
2019-04-26T02:33:51.005Z,9.2
2019-04-26T02:34:50.934Z,10.4
2019-04-26T02:35:50.910Z,9.2
2019-04-26T02:36:57.531Z,9.3
2019-04-26T02:37:50.926Z,9.2
2019-04-26T02:38:50.952Z,9.2
2019-04-26T02:39:51.015Z,9.2
2019-04-26T02:40:51.084Z,9.2
2019-04-26T02:41:51.127Z,9.2
2019-04-26T02:42:51.184Z,9.2
2019-04-26T02:43:51.189Z,9.2
2019-04-26T02:44:51.231Z,9.2
2019-04-26T02:45:51.329Z,9.2
2019-04-26T02:46:51.362Z,9.2
2019-04-26T02:47:51.428Z,9.3
2019-04-26T02:48:51.490Z,9.3
2019-04-26T02:49:51.542Z,9.3
2019-04-26T02:50:51.609Z,9.2
2019-04-26T02:51:51.643Z,9.2
2019-04-26T02:52:51.711Z,9
2019-04-26T02:53:51.806Z,9
2019-04-26T02:54:51.817Z,9.1
2019-04-26T02:55:51.911Z,9.1
2019-04-26T02:56:51.909Z,9.1
2019-04-26T02:57:52.079Z,9.2
2019-04-26T02:58:52.010Z,9.2
2019-04-26T02:59:52.091Z,9.2
2019-04-26T03:00:52.125Z,9.2
2019-04-26T03:01:52.159Z,9.2
2019-04-26T03:02:52.248Z,9.2
2019-04-26T03:03:53.642Z,9.2
2019-04-26T03:04:52.356Z,9.2
2019-04-26T03:05:52.375Z,9
2019-04-26T03:07:02.736Z,9
2019-04-26T03:07:52.492Z,9
2019-04-26T03:08:52.566Z,9
2019-04-26T03:09:52.566Z,9
2019-04-26T03:10:52.637Z,8.9
2019-04-26T03:11:52.687Z,8.9
2019-04-26T03:12:52.898Z,8.9
2019-04-26T03:13:52.738Z,8.9
2019-04-26T03:14:52.787Z,9
2019-04-26T03:15:52.886Z,9
2019-04-26T03:16:52.845Z,9.1
2019-04-26T03:17:52.913Z,9.1
2019-04-26T03:18:52.905Z,9.1
2019-04-26T03:19:52.950Z,9.1
2019-04-26T03:20:52.998Z,9
2019-04-26T03:21:53.020Z,9.1
2019-04-26T03:22:53.090Z,9
2019-04-26T03:23:58.410Z,9
2019-04-26T03:24:53.180Z,8.9
2019-04-26T03:25:53.138Z,8.9
2019-04-26T03:26:53.156Z,8.9
2019-04-26T03:27:53.156Z,8.9
2019-04-26T03:28:53.282Z,8.9
2019-04-26T03:30:04.984Z,8.9
2019-04-26T03:30:53.615Z,8.8
2019-04-26T03:31:55.044Z,8.9
2019-04-26T03:32:54.086Z,8.9
2019-04-26T03:33:54.590Z,8.9
2019-04-26T03:34:55.098Z,9
2019-04-26T03:35:57.443Z,8.9
2019-04-26T03:36:53.502Z,8.9
2019-04-26T03:37:53.541Z,8.9
2019-04-26T03:38:53.566Z,9
2019-04-26T03:39:53.713Z,9
2019-04-26T03:40:53.649Z,9
2019-04-26T03:41:53.720Z,9
2019-04-26T03:42:53.807Z,8.9
2019-04-26T03:43:53.782Z,8.9
2019-04-26T03:44:53.828Z,8.8
2019-04-26T03:45:53.864Z,8.8
2019-04-26T03:46:53.898Z,8.8
2019-04-26T03:47:53.943Z,8.8
2019-04-26T03:48:53.959Z,8.8
2019-04-26T03:49:54.488Z,8.8
2019-04-26T03:50:54.067Z,8.8
2019-04-26T03:51:54.028Z,8.8
2019-04-26T03:52:54.061Z,8.9
2019-04-26T03:53:54.054Z,9
2019-04-26T03:54:54.102Z,8.9
2019-04-26T03:55:54.126Z,8.9
2019-04-26T03:56:54.278Z,8.9
2019-04-26T03:57:54.292Z,8.9
2019-04-26T03:58:54.246Z,8.9
2019-04-26T03:59:54.428Z,8.9
2019-04-26T04:00:54.345Z,8.9
2019-04-26T04:01:54.359Z,8.9
2019-04-26T04:02:54.370Z,8.9
2019-04-26T04:03:54.442Z,8.9
2019-04-26T04:04:54.678Z,8.9
2019-04-26T04:05:54.477Z,8.8
2019-04-26T04:07:03.530Z,8.8
2019-04-26T04:07:54.529Z,8.8
2019-04-26T04:08:54.566Z,8.8
2019-04-26T04:09:54.559Z,8.7
2019-04-26T04:10:54.620Z,8.7
2019-04-26T04:12:09.953Z,8.6
2019-04-26T04:12:54.824Z,8.6
2019-04-26T04:13:54.776Z,8.6
2019-04-26T04:14:54.718Z,8.6
2019-04-26T04:15:54.753Z,8.6
2019-04-26T04:16:54.827Z,8.6
2019-04-26T04:17:54.776Z,8.6
2019-04-26T04:18:54.804Z,8.6
2019-04-26T04:19:54.932Z,8.6
2019-04-26T04:20:54.825Z,8.5
2019-04-26T04:21:54.859Z,8.6
2019-04-26T04:22:54.893Z,8.6
2019-04-26T04:23:55.003Z,8.6
2019-04-26T04:24:54.962Z,8.6
2019-04-26T04:25:54.960Z,8.6
2019-04-26T04:26:55.154Z,8.6
2019-04-26T04:27:54.992Z,8.6
2019-04-26T04:28:55.082Z,8.7
2019-04-26T04:29:55.708Z,8.7
2019-04-26T04:30:55.048Z,8.7
2019-04-26T04:31:55.071Z,8.7
2019-04-26T04:32:55.111Z,8.7
2019-04-26T04:33:55.116Z,8.7
2019-04-26T04:34:55.129Z,8.7
2019-04-26T04:35:55.180Z,8.7
2019-04-26T04:36:55.188Z,8.8
2019-04-26T04:38:08.299Z,8.8
2019-04-26T04:39:10.908Z,8.8
2019-04-26T04:39:55.214Z,8.7
2019-04-26T04:40:55.239Z,8.7
2019-04-26T04:41:55.702Z,8.8
2019-04-26T04:42:55.277Z,8.8
2019-04-26T04:43:55.353Z,8.8
2019-04-26T04:44:55.252Z,8.8
2019-04-26T04:45:55.351Z,8.9
2019-04-26T04:46:55.281Z,8.7
2019-04-26T04:47:55.558Z,8.6
2019-04-26T04:48:55.406Z,8.6
2019-04-26T04:49:55.427Z,8.7
2019-04-26T04:50:55.423Z,8.7
2019-04-26T04:51:55.305Z,8.7
2019-04-26T04:52:58.351Z,8.7
2019-04-26T04:53:55.305Z,8.8
2019-04-26T04:55:06.589Z,8.8
2019-04-26T04:55:55.367Z,8.8
2019-04-26T04:56:55.357Z,8.7
2019-04-26T04:57:55.331Z,8.7
2019-04-26T04:58:55.466Z,8.8
2019-04-26T04:59:55.544Z,8.8
2019-04-26T05:00:55.529Z,8.8
2019-04-26T05:01:55.570Z,8.8
2019-04-26T05:02:55.616Z,8.9
2019-04-26T05:03:55.610Z,8.9
2019-04-26T05:04:55.673Z,9
2019-04-26T05:06:06.804Z,9.1
2019-04-26T05:06:55.747Z,9.2
2019-04-26T05:08:05.342Z,9.2
2019-04-26T05:08:55.958Z,9.2
2019-04-26T05:09:55.919Z,9.2
2019-04-26T05:10:56.009Z,9.2
2019-04-26T05:11:55.997Z,9.1
2019-04-26T05:12:56.053Z,8.9
2019-04-26T05:13:56.062Z,8.8
2019-04-26T05:14:56.165Z,8.9
2019-04-26T05:15:56.254Z,8.9
2019-04-26T05:16:56.271Z,9
2019-04-26T05:17:56.268Z,9
2019-04-26T05:18:56.280Z,9
2019-04-26T05:19:56.374Z,9
2019-04-26T05:20:58.861Z,9.1
2019-04-26T05:21:56.453Z,9.1
2019-04-26T05:22:56.504Z,9.1
2019-04-26T05:23:56.798Z,9.2
2019-04-26T05:24:56.629Z,9.2
2019-04-26T05:25:56.655Z,9.3
2019-04-26T05:26:56.711Z,9.1
2019-04-26T05:27:57.168Z,9.2
2019-04-26T05:28:56.791Z,9.2
2019-04-26T05:29:56.828Z,9.3
2019-04-26T05:30:56.810Z,9.2
2019-04-26T05:31:56.878Z,9.2
2019-04-26T05:32:57.108Z,9.3
2019-04-26T05:33:57.042Z,9.3
2019-04-26T05:34:57.014Z,9.3
2019-04-26T05:35:57.415Z,9.4
2019-04-26T05:36:57.049Z,9.5
2019-04-26T05:37:57.325Z,9.4
2019-04-26T05:38:57.582Z,9.4
2019-04-26T05:39:57.450Z,9.5
2019-04-26T05:40:57.778Z,9.6
2019-04-26T05:41:57.841Z,9.6
2019-04-26T05:42:57.992Z,9.7
2019-04-26T05:43:57.993Z,9.8
2019-04-26T05:44:57.410Z,9.7
2019-04-26T05:45:58.068Z,9.9
2019-04-26T05:46:57.880Z,9.7
2019-04-26T05:48:07.900Z,9.6
2019-04-26T05:48:57.830Z,9.6
2019-04-26T05:49:57.957Z,9.6
2019-04-26T05:50:57.883Z,9.8
2019-04-26T05:51:57.861Z,9.9
2019-04-26T05:52:57.737Z,9.9
2019-04-26T05:53:57.753Z,10
2019-04-26T05:54:58.187Z,9.8
2019-04-26T05:55:58.043Z,10
2019-04-26T05:56:58.367Z,10.1
2019-04-26T05:57:58.563Z,10.1
2019-04-26T05:59:00.263Z,10
2019-04-26T05:59:58.886Z,10.2
2019-04-26T06:00:57.989Z,10.3
2019-04-26T06:01:59.003Z,10.5
2019-04-26T06:02:58.974Z,10.6
2019-04-26T06:03:58.380Z,10.7
2019-04-26T06:04:59.190Z,10.7
2019-04-26T06:05:58.548Z,10.7
2019-04-26T06:06:59.262Z,10.6
2019-04-26T06:07:58.508Z,10.7
2019-04-26T06:08:59.523Z,10.8
2019-04-26T06:09:58.619Z,10.8
2019-04-26T06:10:58.272Z,10.9
2019-04-26T06:11:58.746Z,10.8
2019-04-26T06:12:58.745Z,10.7
2019-04-26T06:13:58.459Z,10.7
2019-04-26T06:14:58.860Z,10.8
2019-04-26T06:15:58.408Z,10.9
2019-04-26T06:16:59.201Z,10.9
2019-04-26T06:17:59.652Z,10.9
2019-04-26T06:18:59.573Z,11.1
2019-04-26T06:19:59.431Z,10.9
2019-04-26T06:20:59.723Z,11
2019-04-26T06:21:58.552Z,10.9
2019-04-26T06:22:59.540Z,11.1
2019-04-26T06:23:58.641Z,11.1
2019-04-26T06:24:58.595Z,11.2
2019-04-26T06:26:01.304Z,11.4
2019-04-26T06:27:10.911Z,11.5
2019-04-26T06:27:58.721Z,11.2
2019-04-26T06:28:59.015Z,11.3
2019-04-26T06:29:58.862Z,11.5
2019-04-26T06:30:59.336Z,11.4
2019-04-26T06:31:58.796Z,11.7
2019-04-26T06:33:03.091Z,11.8
2019-04-26T06:33:58.838Z,11.7
2019-04-26T06:34:59.302Z,11.5
2019-04-26T06:35:59.292Z,11.7
2019-04-26T06:36:59.719Z,11.4
2019-04-26T06:37:59.709Z,11.4
2019-04-26T06:38:59.861Z,11.7
2019-04-26T06:39:59.888Z,11.3
2019-04-26T06:40:58.856Z,10.8
2019-04-26T06:41:58.840Z,11.2
2019-04-26T06:42:58.873Z,11.2
2019-04-26T06:43:58.892Z,11.2
2019-04-26T06:44:58.869Z,11.4
2019-04-26T06:45:58.864Z,11.1
2019-04-26T06:46:59.786Z,11.2
2019-04-26T06:47:58.986Z,10.9
2019-04-26T06:48:58.962Z,10.6
2019-04-26T06:49:58.885Z,10.6
2019-04-26T06:50:59.787Z,10.6
2019-04-26T06:51:58.969Z,10.3
2019-04-26T06:52:59.155Z,10.4
2019-04-26T06:53:59.048Z,10.7
2019-04-26T06:54:59.731Z,10.5
2019-04-26T06:55:59.209Z,11
2019-04-26T06:57:07.871Z,10.4
2019-04-26T06:57:59.800Z,10.5
2019-04-26T06:58:59.310Z,10.8
2019-04-26T06:59:59.538Z,11.2
2019-04-26T07:00:59.422Z,11.2
2019-04-26T07:01:59.512Z,11.3
2019-04-26T07:02:59.521Z,11.3
2019-04-26T07:03:59.704Z,10.8
2019-04-26T07:05:00.683Z,11.5
2019-04-26T07:06:00.339Z,11.1
2019-04-26T07:07:00.840Z,10.5
2019-04-26T07:07:59.868Z,9.9
2019-04-26T07:09:01.179Z,10.3
2019-04-26T07:10:00.258Z,10
2019-04-26T07:11:00.646Z,10.2
2019-04-26T07:12:00.797Z,11.1
2019-04-26T07:13:00.959Z,11.6
2019-04-26T07:14:00.592Z,11.7
2019-04-26T07:15:00.857Z,11.2
2019-04-26T07:16:01.342Z,10.3
2019-04-26T07:17:00.680Z,10.9
2019-04-26T07:18:00.896Z,10.1
2019-04-26T07:19:01.229Z,10.7
2019-04-26T07:20:01.272Z,10.7
2019-04-26T07:21:00.582Z,10.5
2019-04-26T07:22:00.643Z,10.6
2019-04-26T07:23:01.765Z,10.6
2019-04-26T07:24:01.177Z,10.5
2019-04-26T07:25:01.476Z,10.8
2019-04-26T07:26:01.638Z,12
2019-04-26T07:27:01.397Z,11.2
2019-04-26T07:28:04.285Z,11.3
2019-04-26T07:29:01.419Z,11.2
2019-04-26T07:30:02.222Z,10.7
2019-04-26T07:31:01.304Z,11.3
2019-04-26T07:32:01.863Z,11.1
2019-04-26T07:33:01.311Z,11.3
2019-04-26T07:34:02.090Z,11.2
2019-04-26T07:35:01.166Z,11.3
2019-04-26T07:36:01.149Z,11.7
2019-04-26T07:37:01.713Z,11.3
2019-04-26T07:38:01.287Z,11.4
2019-04-26T07:39:11.437Z,11
2019-04-26T07:40:01.431Z,11.3
2019-04-26T07:41:01.536Z,10
2019-04-26T07:42:01.699Z,10
2019-04-26T07:43:01.824Z,9.8
2019-04-26T07:44:02.590Z,10.2
2019-04-26T07:45:02.186Z,10.6
2019-04-26T07:46:02.847Z,9.7
2019-04-26T07:47:01.502Z,9.8
2019-04-26T07:48:03.123Z,9.8
2019-04-26T07:49:02.032Z,10.7
2019-04-26T07:50:03.421Z,10.5
2019-04-26T07:51:02.954Z,9.5
2019-04-26T07:52:02.763Z,9.3
2019-04-26T07:53:03.193Z,9.3
2019-04-26T07:54:02.280Z,9.6
2019-04-26T07:55:03.159Z,9.5
2019-04-26T07:56:02.289Z,9
2019-04-26T07:57:03.064Z,9.2
2019-04-26T07:58:03.529Z,8.9
2019-04-26T07:59:04.170Z,9.1
2019-04-26T08:00:02.755Z,9.7
2019-04-26T08:01:02.719Z,9.2
2019-04-26T08:02:02.029Z,10.3
2019-04-26T08:03:02.059Z,9.6
2019-04-26T08:04:03.752Z,8.4
2019-04-26T08:05:03.261Z,8.8
2019-04-26T08:06:02.883Z,8.9
2019-04-26T08:07:02.191Z,8.3
2019-04-26T08:08:02.289Z,8.9
2019-04-26T08:09:03.148Z,8.7
2019-04-26T08:10:03.577Z,9.4
2019-04-26T08:11:04.338Z,8.9
2019-04-26T08:12:04.426Z,8.5
2019-04-26T08:13:02.350Z,9.3
2019-04-26T08:14:02.425Z,9.4
2019-04-26T08:15:02.425Z,8.9
2019-04-26T08:16:02.419Z,8.9
2019-04-26T08:17:02.571Z,8.4
2019-04-26T08:18:02.479Z,8.8
2019-04-26T08:19:02.503Z,8.9
2019-04-26T08:20:02.811Z,8.8
2019-04-26T08:21:06.824Z,8.7
2019-04-26T08:22:12.248Z,8.8
2019-04-26T08:23:06.499Z,9
2019-04-26T08:24:02.625Z,8.9
2019-04-26T08:25:02.634Z,9.3
2019-04-26T08:26:02.615Z,8.3
2019-04-26T08:27:08.486Z,9.2
2019-04-26T08:28:02.630Z,8.9
2019-04-26T08:29:02.626Z,8.8
2019-04-26T08:30:03.277Z,8.7
2019-04-26T08:31:04.696Z,8.4
2019-04-26T08:32:02.700Z,8.1
2019-04-26T08:33:06.347Z,9.1
2019-04-26T08:34:02.738Z,9.9
2019-04-26T08:35:06.695Z,8.4
2019-04-26T08:36:02.777Z,8.8
2019-04-26T08:37:03.203Z,9.1
2019-04-26T08:38:06.526Z,8.9
2019-04-26T08:39:02.806Z,8.7
2019-04-26T08:40:02.792Z,9.1
2019-04-26T08:41:04.867Z,8.8
2019-04-26T08:42:02.838Z,8.4
2019-04-26T08:43:02.815Z,8.6
2019-04-26T08:44:03.452Z,8.5
2019-04-26T08:45:04.369Z,8.7
2019-04-26T08:46:03.509Z,8.5
2019-04-26T08:47:05.929Z,8.2
2019-04-26T08:48:02.886Z,7.7
2019-04-26T08:49:06.331Z,7.7
2019-04-26T08:50:02.931Z,8.8
2019-04-26T08:51:02.941Z,8.7
2019-04-26T08:52:14.102Z,8.6
2019-04-26T08:53:03.107Z,8.1
2019-04-26T08:54:03.117Z,8.4
2019-04-26T08:55:03.169Z,7.9
2019-04-26T08:56:03.226Z,8.2
2019-04-26T08:57:03.221Z,8.3
2019-04-26T08:58:03.263Z,8.4
2019-04-26T08:59:03.396Z,8.6
2019-04-26T09:00:03.390Z,8.6
2019-04-26T09:01:03.447Z,8.5
2019-04-26T09:02:03.589Z,8.4
2019-04-26T09:03:11.478Z,7.9
2019-04-26T09:04:03.618Z,7.6
2019-04-26T09:05:03.690Z,8.1
2019-04-26T09:06:03.732Z,8.5
2019-04-26T09:07:03.790Z,8.9
2019-04-26T09:08:04.040Z,8.5
2019-04-26T09:09:03.912Z,8.6
2019-04-26T09:10:11.539Z,8.8
2019-04-26T09:11:03.906Z,8.5
2019-04-26T09:12:08.042Z,8.3
2019-04-26T09:13:03.998Z,8.5
2019-04-26T09:14:04.063Z,8.3
2019-04-26T09:15:04.113Z,8.6
2019-04-26T09:16:04.174Z,8.9
2019-04-26T09:17:04.288Z,8.6
2019-04-26T09:18:06.015Z,8.7
2019-04-26T09:19:04.289Z,8.3
2019-04-26T09:20:07.759Z,8.1
2019-04-26T09:21:04.428Z,8.5
2019-04-26T09:22:12.670Z,8.8
2019-04-26T09:23:05.017Z,8.1
2019-04-26T09:24:04.518Z,8.6
2019-04-26T09:25:06.871Z,8.8
2019-04-26T09:26:04.664Z,8.9
2019-04-26T09:27:04.598Z,8.7
2019-04-26T09:28:04.700Z,8.6
2019-04-26T09:29:04.710Z,8.5
2019-04-26T09:30:06.112Z,8.9
2019-04-26T09:31:04.748Z,9.2
2019-04-26T09:32:04.722Z,9.2
2019-04-26T09:33:04.801Z,9.1
2019-04-26T09:34:06.273Z,9
2019-04-26T09:35:04.866Z,9.2
2019-04-26T09:36:04.873Z,8.7
2019-04-26T09:37:04.894Z,8.3
2019-04-26T09:38:04.931Z,8.3
2019-04-26T09:39:08.172Z,8.2
2019-04-26T09:40:10.298Z,8.1
2019-04-26T09:41:05.003Z,8.3
2019-04-26T09:42:09.420Z,8.3
2019-04-26T09:43:05.029Z,9
2019-04-26T09:44:05.069Z,9.4
2019-04-26T09:45:05.097Z,8.8
2019-04-26T09:46:05.189Z,8.5
2019-04-26T09:47:05.249Z,8.9
2019-04-26T09:48:05.187Z,8.7
2019-04-26T09:49:06.913Z,8.5
2019-04-26T09:50:05.251Z,8.3
2019-04-26T09:51:05.275Z,8.3
2019-04-26T09:52:05.330Z,8.3
2019-04-26T09:53:05.390Z,8.3
2019-04-26T09:54:05.425Z,7.9
2019-04-26T09:55:05.439Z,8.5
2019-04-26T09:56:05.481Z,8.4
2019-04-26T09:57:05.475Z,8.2
2019-04-26T09:58:05.694Z,8.8
2019-04-26T09:59:05.853Z,8.3
2019-04-26T10:00:05.562Z,8.6
2019-04-26T10:01:06.237Z,8
2019-04-26T10:02:05.614Z,8.4
2019-04-26T10:03:09.289Z,8.7
2019-04-26T10:04:05.668Z,8.3
2019-04-26T10:05:07.944Z,8.5
2019-04-26T10:06:08.044Z,8.4
2019-04-26T10:07:05.733Z,8.5
2019-04-26T10:08:08.213Z,8.8
2019-04-26T10:09:05.767Z,9
2019-04-26T10:10:05.823Z,8.8
2019-04-26T10:11:09.540Z,8.7
2019-04-26T10:12:05.822Z,8.9
2019-04-26T10:13:05.849Z,8.4
2019-04-26T10:14:05.854Z,8.6
2019-04-26T10:15:06.061Z,8.5
2019-04-26T10:16:05.890Z,8.8
2019-04-26T10:17:05.938Z,8.6
2019-04-26T10:18:08.107Z,8.4
2019-04-26T10:19:05.927Z,8.4
2019-04-26T10:20:05.951Z,9
2019-04-26T10:21:05.935Z,9.1
2019-04-26T10:22:05.958Z,9.7
2019-04-26T10:23:06.008Z,8.8
2019-04-26T10:24:08.271Z,8.8
2019-04-26T10:25:07.216Z,8.7
2019-04-26T10:26:05.955Z,8.6
2019-04-26T10:27:05.987Z,9.2
2019-04-26T10:28:05.973Z,9.3
2019-04-26T10:29:05.991Z,8.8
2019-04-26T10:30:08.805Z,9.9
2019-04-26T10:31:06.040Z,9.5
2019-04-26T10:32:06.118Z,9.1
2019-04-26T10:33:06.174Z,9.1
2019-04-26T10:34:07.636Z,9.2
2019-04-26T10:35:06.219Z,9
2019-04-26T10:36:06.283Z,8.4
2019-04-26T10:37:07.803Z,8.4
2019-04-26T10:38:06.414Z,8.6
2019-04-26T10:39:06.435Z,8.8
2019-04-26T10:40:06.537Z,9.1
2019-04-26T10:41:06.543Z,9.4
2019-04-26T10:42:06.560Z,9.4
2019-04-26T10:43:06.580Z,9.2
2019-04-26T10:44:09.501Z,8.5
2019-04-26T10:45:06.671Z,8.7
2019-04-26T10:46:06.733Z,8.7
2019-04-26T10:47:06.769Z,8.9
2019-04-26T10:48:09.454Z,8.9
2019-04-26T10:49:09.025Z,9.2
2019-04-26T10:50:06.910Z,8.6
2019-04-26T10:51:07.493Z,8.5
2019-04-26T10:52:06.944Z,8.7
2019-04-26T10:53:06.979Z,8.4
2019-04-26T10:54:07.653Z,8.9
2019-04-26T10:55:07.100Z,8.4
2019-04-26T10:56:07.139Z,8.9
2019-04-26T10:57:07.203Z,8.6
2019-04-26T10:58:07.218Z,9.2
2019-04-26T10:59:09.725Z,8.7
2019-04-26T11:00:07.308Z,8.3
2019-04-26T11:01:07.320Z,9
2019-04-26T11:02:07.363Z,9
2019-04-26T11:03:07.413Z,9
2019-04-26T11:04:07.471Z,8.4
2019-04-26T11:05:07.526Z,8.8
2019-04-26T11:06:07.549Z,8.7
2019-04-26T11:07:07.601Z,8.6
2019-04-26T11:08:07.664Z,9.2
2019-04-26T11:09:07.695Z,9.6
2019-04-26T11:10:07.704Z,9.3
2019-04-26T11:11:07.743Z,9.2
2019-04-26T11:12:08.793Z,8.9
2019-04-26T11:13:07.985Z,8.8
2019-04-26T11:14:07.879Z,9
2019-04-26T11:15:07.893Z,9
2019-04-26T11:16:08.898Z,9.5
2019-04-26T11:17:11.366Z,9
2019-04-26T11:18:07.952Z,9.4
2019-04-26T11:19:08.030Z,9.7
2019-04-26T11:20:10.299Z,9
2019-04-26T11:21:08.065Z,9.2
2019-04-26T11:22:08.107Z,9.2
2019-04-26T11:23:11.610Z,9.9
2019-04-26T11:24:08.157Z,10.2
2019-04-26T11:25:08.183Z,9.6
2019-04-26T11:26:08.220Z,9
2019-04-26T11:27:09.540Z,9.1
2019-04-26T11:28:08.275Z,8.8
2019-04-26T11:29:08.343Z,9.2
2019-04-26T11:30:12.013Z,9.3
2019-04-26T11:31:08.416Z,9.2
2019-04-26T11:32:08.471Z,9.5
2019-04-26T11:33:10.945Z,9.2
2019-04-26T11:34:08.516Z,9.1
2019-04-26T11:35:08.563Z,9.8
2019-04-26T11:36:08.820Z,9.7
2019-04-26T11:37:08.577Z,9.3
2019-04-26T11:38:08.654Z,9.4
2019-04-26T11:39:08.738Z,8.9
2019-04-26T11:40:10.138Z,9.3
2019-04-26T11:41:08.756Z,9.7
2019-04-26T11:42:11.707Z,9
2019-04-26T11:43:08.728Z,9.1
2019-04-26T11:44:08.732Z,9.3
2019-04-26T11:45:10.640Z,9
2019-04-26T11:46:08.797Z,9.8
2019-04-26T11:47:08.878Z,9.3
2019-04-26T11:48:08.800Z,9.6
2019-04-26T11:49:08.823Z,9.5
2019-04-26T11:50:12.337Z,10.1
2019-04-26T11:51:08.878Z,10.4
2019-04-26T11:52:08.896Z,10
2019-04-26T11:53:10.067Z,9.4
2019-04-26T11:54:08.899Z,9.6
2019-04-26T11:55:09.029Z,10
2019-04-26T11:56:09.053Z,9.7
2019-04-26T11:57:11.958Z,9.7
2019-04-26T11:58:09.015Z,9.2
2019-04-26T11:59:09.038Z,9.5
2019-04-26T12:00:09.055Z,9.6
2019-04-26T12:01:09.038Z,9.9
2019-04-26T12:02:12.156Z,9.7
2019-04-26T12:03:09.144Z,9.5
2019-04-26T12:04:09.106Z,9.8
2019-04-26T12:05:09.109Z,10
2019-04-26T12:06:11.621Z,10.1
2019-04-26T12:07:09.160Z,9.7
2019-04-26T12:08:09.171Z,9.8
2019-04-26T12:09:09.183Z,9.7
2019-04-26T12:10:09.707Z,9.9
2019-04-26T12:11:18.086Z,9.5
2019-04-26T12:12:12.899Z,9.4
2019-04-26T12:13:09.205Z,9.9
2019-04-26T12:14:19.538Z,9.5
2019-04-26T12:15:10.197Z,9.6
2019-04-26T12:16:09.900Z,9.7
2019-04-26T12:17:09.220Z,9.6
2019-04-26T12:18:11.112Z,9.4
2019-04-26T12:19:09.350Z,9.6
2019-04-26T12:20:11.636Z,9.7
2019-04-26T12:21:09.240Z,9.8
2019-04-26T12:22:09.933Z,9.9
2019-04-26T12:23:09.257Z,10.2
2019-04-26T12:24:09.242Z,10.3
2019-04-26T12:25:09.336Z,9.8
2019-04-26T12:26:09.372Z,9.8
2019-04-26T12:27:10.293Z,10.2
2019-04-26T12:28:09.489Z,10
2019-04-26T12:29:10.426Z,9.6
2019-04-26T12:30:09.574Z,9.7
2019-04-26T12:31:09.661Z,9.8
2019-04-26T12:32:09.681Z,9.3
2019-04-26T12:33:09.836Z,9.3
2019-04-26T12:34:09.854Z,9.5
2019-04-26T12:35:09.893Z,9.5
2019-04-26T12:36:13.226Z,9.3
2019-04-26T12:37:12.488Z,9
2019-04-26T12:38:10.041Z,9.3
2019-04-26T12:39:10.093Z,9.9
2019-04-26T12:40:11.188Z,9.5
2019-04-26T12:41:11.569Z,9.4
2019-04-26T12:42:12.203Z,9.1
2019-04-26T12:43:10.199Z,8.9
2019-04-26T12:44:10.280Z,8.8
2019-04-26T12:45:12.118Z,9.1
2019-04-26T12:46:10.335Z,9
2019-04-26T12:47:10.347Z,9.3
2019-04-26T12:48:12.256Z,9.6
2019-04-26T12:49:10.437Z,9.2
2019-04-26T12:50:10.500Z,8.9
2019-04-26T12:51:11.942Z,9.2
2019-04-26T12:52:10.561Z,9.5
2019-04-26T12:53:13.064Z,9
2019-04-26T12:54:10.622Z,9.3
2019-04-26T12:55:13.683Z,9
2019-04-26T12:56:10.661Z,9.1
2019-04-26T12:57:10.716Z,9.4
2019-04-26T12:58:10.958Z,8.9
2019-04-26T12:59:10.788Z,9
2019-04-26T13:00:11.273Z,9.1
2019-04-26T13:01:12.052Z,9.2
2019-04-26T13:02:16.497Z,9.4
2019-04-26T13:03:19.934Z,9.5
2019-04-26T13:04:10.940Z,10
2019-04-26T13:05:14.423Z,9.5
2019-04-26T13:06:11.073Z,9.2
2019-04-26T13:07:22.612Z,9.5
2019-04-26T13:08:13.026Z,9.7
2019-04-26T13:09:11.134Z,9.9
2019-04-26T13:10:11.138Z,9.6
2019-04-26T13:11:14.856Z,9.5
2019-04-26T13:12:11.211Z,9.4
2019-04-26T13:13:11.265Z,9.9
2019-04-26T13:14:11.308Z,10.2
2019-04-26T13:15:13.106Z,9.9
2019-04-26T13:16:11.435Z,9.5
2019-04-26T13:17:11.421Z,10
2019-04-26T13:18:12.063Z,10.2
2019-04-26T13:19:11.523Z,10
2019-04-26T13:20:11.593Z,10
2019-04-26T13:21:11.596Z,10.6
2019-04-26T13:22:12.452Z,10.2
2019-04-26T13:23:11.588Z,10.2
2019-04-26T13:24:11.618Z,10.1
2019-04-26T13:25:17.371Z,10.1
2019-04-26T13:26:11.708Z,10.4
2019-04-26T13:27:12.305Z,9.5
2019-04-26T13:28:11.682Z,9.8
2019-04-26T13:29:11.757Z,9.7
2019-04-26T13:30:12.051Z,9.9
2019-04-26T13:31:11.811Z,9.7
2019-04-26T13:32:11.834Z,9.9
2019-04-26T13:33:11.887Z,9.6
2019-04-26T13:34:11.848Z,9.9
2019-04-26T13:35:13.012Z,9.5
2019-04-26T13:36:11.944Z,9.6
2019-04-26T13:37:11.926Z,9.3
2019-04-26T13:38:11.956Z,9.8
2019-04-26T13:39:17.513Z,9.4
2019-04-26T13:40:12.002Z,10
2019-04-26T13:41:12.039Z,9.3
2019-04-26T13:42:13.531Z,9.6
2019-04-26T13:43:12.040Z,9
2019-04-26T13:44:12.062Z,9.3
2019-04-26T13:45:12.080Z,9.1
2019-04-26T13:46:12.091Z,9.2